Time;durP1;ratioP1;P1;durP2;ratioP2;P2;SDS_P1;SDS_P2;PMS_P1;PMS_P2;Temp;Humidity;BMP_temperature;BMP_pressure;BME280_temperature;BME280_humidity;BME280_pressure;Samples;Min_cycle;Max_cycle;Signal;HPM_P1;HPM_P2
2023/10/09 00:03:00;;;;;;;29.67;15.75;;;;;;;13.80;100.00;101897.53;5054762;28;20496;-72
2023/10/09 00:05:40;;;;;;;27.20;14.20;;;;;;;13.80;100.00;101892.13;5053180;28;20102;-71
2023/10/09 00:08:05;;;;;;;;;;;;;;;13.87;100.00;101890.72;5056152;28;20027;-71
2023/10/09 00:10:45;;;;;;;29.80;13.20;;;;;;;13.83;100.00;101886.50;5045665;28;19916;-71
2023/10/09 00:13:10;;;;;;;28.40;14.60;;;;;;;13.86;100.00;101886.28;5053000;28;20025;-72
2023/10/09 00:15:36;;;;;;;31.58;14.23;;;;;;;13.89;100.00;101883.34;5055099;28;20338;-71
2023/10/09 00:18:04;;;;;;;28.33;16.17;;;;;;;13.92;100.00;101868.78;5045816;28;20337;-71
2023/10/09 00:20:38;;;;;;;26.98;14.98;;;;;;;13.96;100.00;101852.22;5053514;28;20119;-71
2023/10/09 00:23:12;;;;;;;31.30;16.55;;;;;;;14.00;100.00;101871.81;5050549;28;20028;-71
2023/10/09 00:25:44;;;;;;;29.20;14.70;;;;;;;14.04;100.00;101876.03;5063669;28;20494;-71
2023/10/09 00:28:10;;;;;;;27.35;15.75;;;;;;;14.09;100.00;101878.38;5053807;28;20380;-71
2023/10/09 00:30:41;;;;;;;28.40;15.57;;;;;;;14.10;100.00;101872.88;5062549;28;20027;-71
2023/10/09 00:33:11;;;;;;;28.77;15.18;;;;;;;14.14;100.00;101855.47;5049057;28;20056;-71
2023/10/09 00:35:54;;;;;;;32.00;15.20;;;;;;;14.18;100.00;101855.22;5063741;28;20029;-71
2023/10/09 00:40:52;;;;;;;28.70;14.82;;;;;;;14.24;100.00;101834.00;5062062;28;20051;-72
2023/10/09 00:43:19;;;;;;;26.15;16.20;;;;;;;14.26;100.00;101842.88;5051168;28;20562;-71
2023/10/09 00:45:46;;;;;;;28.95;15.75;;;;;;;14.28;100.00;101840.91;5059362;28;20192;-71
2023/10/09 00:48:22;;;;;;;27.90;15.23;;;;;;;14.31;100.00;101837.97;5057294;28;20055;-71
2023/10/09 00:50:52;;;;;;;29.88;16.10;;;;;;;14.35;100.00;101835.94;5062788;28;20037;-71
2023/10/09 00:53:18;;;;;;;;;;;;;;;14.42;100.00;101842.63;5061505;28;20028;-71
2023/10/09 00:55:45;;;;;;;27.42;14.85;;;;;;;14.40;100.00;101849.97;5060005;28;19917;-71
2023/10/09 00:58:23;;;;;;;29.85;15.52;;;;;;;14.44;100.00;101856.88;5057954;28;20082;-72
2023/10/09 01:00:52;;;;;;;29.85;16.30;;;;;;;14.47;100.00;101863.91;5056433;28;20548;-74
2023/10/09 01:03:22;;;;;;;26.55;14.60;;;;;;;14.47;100.00;101856.66;5055544;28;20021;-73
2023/10/09 01:05:57;;;;;;;30.15;16.55;;;;;;;14.48;100.00;101846.69;5060365;28;20039;-73
2023/10/09 01:11:22;;;;;;;26.80;14.73;;;;;;;14.49;100.00;101856.53;5051976;28;20409;-73
2023/10/09 01:16:18;;;;;;;27.90;14.82;;;;;;;14.49;100.00;101843.00;5056202;28;20044;-74
2023/10/09 01:18:46;;;;;;;27.33;15.35;;;;;;;14.49;100.00;101849.31;5052807;28;20024;-73
2023/10/09 01:21:12;;;;;;;27.38;14.40;;;;;;;14.50;100.00;101848.31;5054609;28;20024;-73
2023/10/09 01:26:40;;;;;;;24.65;14.50;;;;;;;14.50;100.00;101844.75;5048076;28;20166;-73
2023/10/09 01:29:10;;;;;;;31.88;14.98;;;;;;;14.49;100.00;101848.44;5051869;28;20036;-73
2023/10/09 01:31:43;;;;;;;26.85;14.73;;;;;;;14.49;100.00;101848.44;5052344;28;20444;-73
2023/10/09 01:34:09;;;;;;;27.15;14.13;;;;;;;14.49;100.00;101852.00;5051939;28;20021;-74
2023/10/09 01:36:39;;;;;;;26.83;14.75;;;;;;;14.50;100.00;101860.97;5052477;28;20024;-73
2023/10/09 01:39:25;;;;;;;26.30;13.60;;;;;;;14.48;100.00;101855.69;5060722;28;20107;-73
2023/10/09 01:42:05;;;;;;;27.13;15.57;;;;;;;14.48;100.00;101862.91;5057204;28;20056;-73
2023/10/09 01:44:34;;;;;;;28.05;14.00;;;;;;;14.49;100.00;101852.00;5052257;28;20075;-73
2023/10/09 01:47:07;;;;;;;24.40;13.50;;;;;;;14.48;100.00;101850.28;5048531;28;20045;-73
2023/10/09 01:49:41;;;;;;;25.05;14.43;;;;;;;14.48;100.00;101852.97;5061326;28;20056;-73
2023/10/09 01:52:12;;;;;;;26.20;14.23;;;;;;;14.48;100.00;101850.28;5060261;28;20030;-73
2023/10/09 01:54:39;;;;;;;27.17;14.10;;;;;;;14.46;100.00;101843.25;5043089;28;20035;-73
2023/10/09 01:57:12;;;;;;;27.55;15.95;;;;;;;14.46;100.00;101844.09;5043083;28;20021;-73
2023/10/09 01:59:43;;;;;;;29.67;15.02;;;;;;;14.47;100.00;101839.56;5053895;28;20023;-73
2023/10/09 02:04:41;;;;;;;25.85;14.23;;;;;;;14.48;100.00;101841.28;5036945;28;20033;-73
2023/10/09 02:07:08;;;;;;;28.33;14.57;;;;;;;14.47;100.00;101844.97;5044453;28;20025;-73
2023/10/09 02:09:34;;;;;;;27.17;14.93;;;;;;;14.48;100.00;101846.69;5054660;28;20472;-73
2023/10/09 02:12:00;;;;;;;28.33;14.90;;;;;;;14.50;100.00;101850.16;5061582;28;20082;-73
2023/10/09 02:14:27;;;;;;;29.15;14.40;;;;;;;14.51;100.00;101843.78;5045182;28;20036;-73
2023/10/09 02:19:40;;;;;;;27.67;14.52;;;;;;;14.50;100.00;101833.94;5058377;28;20059;-73
2023/10/09 02:22:14;;;;;;;25.80;14.93;;;;;;;14.50;100.00;101842.91;5047696;28;20345;-73
2023/10/09 02:25:07;;;;;;;28.23;15.20;;;;;;;14.52;100.00;101831.97;5052969;28;20120;-73
2023/10/09 02:30:34;;;;;;;28.38;14.55;;;;;;;14.52;100.00;101834.66;5007297;28;20122;-73
2023/10/09 02:33:08;;;;;;;30.43;15.73;;;;;;;14.52;100.00;101821.13;5046667;28;20114;-73
2023/10/09 02:35:37;;;;;;;25.90;14.38;;;;;;;14.53;100.00;101814.75;5057922;28;20294;-73
2023/10/09 02:38:07;;;;;;;27.00;14.52;;;;;;;14.56;100.00;101805.56;5058951;28;20534;-73
2023/10/09 02:40:40;;;;;;;28.25;14.50;;;;;;;14.55;100.00;101812.78;5058432;28;20036;-73
2023/10/09 02:43:17;;;;;;;28.40;15.30;;;;;;;14.55;100.00;101801.13;5051918;28;20358;-73
2023/10/09 02:45:50;;;;;;;28.42;15.73;;;;;;;14.56;100.00;101798.28;5063041;28;20043;-73
2023/10/09 02:48:27;;;;;;;26.60;14.65;;;;;;;14.56;100.00;101794.75;5064224;28;20049;-73
2023/10/09 02:50:53;;;;;;;26.42;15.27;;;;;;;14.57;100.00;101797.31;5060767;28;20052;-73
2023/10/09 02:53:19;;;;;;;28.52;14.10;;;;;;;14.58;100.00;101799.03;5043876;28;20438;-73
2023/10/09 02:56:11;;;;;;;27.92;15.85;;;;;;;14.58;100.00;101804.44;5051926;28;20067;-73
2023/10/09 02:58:36;;;;;;;31.13;15.57;;;;;;;14.60;100.00;101796.25;5047156;28;20037;-73
2023/10/09 03:01:02;;;;;;;26.98;13.32;;;;;;;14.60;100.00;101807.91;5059513;28;20044;-73
2023/10/09 03:03:28;;;;;;;27.55;14.95;;;;;;;14.61;100.00;101812.38;5062625;28;20033;-73
2023/10/09 03:05:53;;;;;;;27.70;14.45;;;;;;;14.60;100.00;101807.91;5053135;28;20387;-73
2023/10/09 03:08:19;;;;;;;29.77;13.35;;;;;;;14.62;100.00;101815.94;5050445;28;20040;-73
2023/10/09 03:10:45;;;;;;;27.15;14.85;;;;;;;14.62;100.00;101808.69;5050452;28;20017;-73
2023/10/09 03:13:10;;;;;;;24.35;14.15;;;;;;;14.63;100.00;101807.72;5058807;28;20025;-73
2023/10/09 03:15:35;;;;;;;30.30;15.63;;;;;;;14.62;100.00;101808.69;5048099;28;20078;-73
2023/10/09 03:18:04;;;;;;;27.50;14.43;;;;;;;14.63;100.00;101806.88;5048784;28;20043;-73
2023/10/09 03:20:30;;;;;;;27.75;14.93;;;;;;;14.64;100.00;101792.34;5055140;28;20043;-73
2023/10/09 03:22:55;;;;;;;25.00;14.93;;;;;;;14.63;100.00;101786.06;5057334;28;20103;-74
2023/10/09 03:25:21;;;;;;;24.88;13.63;;;;;;;14.64;100.00;101784.22;5053410;28;20552;-73
2023/10/09 03:27:46;;;;;;;30.25;15.73;;;;;;;14.63;100.00;101779.81;5062182;28;20388;-73
2023/10/09 03:30:20;;;;;;;28.48;13.60;;;;;;;14.63;100.00;101775.25;5063292;28;20016;-73
2023/10/09 03:32:51;;;;;;;25.48;13.23;;;;;;;14.65;100.00;101780.53;5053360;28;20025;-73
2023/10/09 03:35:33;;;;;;;29.58;14.45;;;;;;;14.65;100.00;101783.25;5055693;28;20513;-73
2023/10/09 03:38:18;;;;;;;28.45;14.55;;;;;;;14.67;100.00;101775.88;5058951;28;20106;-73
2023/10/09 03:40:47;;;;;;;29.35;15.50;;;;;;;14.67;100.00;101770.44;5056858;28;20032;-73
2023/10/09 03:43:13;;;;;;;26.17;15.13;;;;;;;14.66;100.00;101775.00;5060040;28;20074;-73
2023/10/09 03:45:52;;;;;;;28.23;14.63;;;;;;;14.67;100.00;101765.94;5061110;28;20378;-73
2023/10/09 03:48:22;;;;;;;27.42;14.98;;;;;;;14.67;100.00;101765.94;5055410;28;20062;-73
2023/10/09 03:50:47;;;;;;;27.58;15.57;;;;;;;14.65;100.00;101770.56;5061551;28;20033;-73
2023/10/09 03:53:13;;;;;;;27.40;15.18;;;;;;;14.65;100.00;101769.72;5061353;28;20081;-73
2023/10/09 03:55:40;;;;;;;28.85;14.15;;;;;;;14.65;100.00;101769.72;5059288;28;20099;-73
2023/10/09 03:58:11;;;;;;;25.58;14.55;;;;;;;14.66;100.00;101757.94;5046513;28;20033;-71
2023/10/09 04:00:48;;;;;;;26.67;15.45;;;;;;;14.63;100.00;101769.00;5049657;28;20434;-71
2023/10/09 04:03:15;;;;;;;29.83;15.27;;;;;;;14.63;100.00;101769.00;5047419;28;20108;-71
2023/10/09 04:05:42;;;;;;;31.02;15.20;;;;;;;14.63;100.00;101769.00;5060673;28;20052;-71
2023/10/09 04:08:19;;;;;;;27.63;14.18;;;;;;;14.63;100.00;101769.00;5058248;28;20032;-71
2023/10/09 04:10:51;;;;;;;24.92;14.20;;;;;;;14.63;100.00;101766.28;5060275;28;20052;-71
2023/10/09 04:13:22;;;;;;;30.70;14.77;;;;;;;14.63;100.00;101774.41;5052778;28;20325;-71
2023/10/09 04:15:54;;;;;;;29.08;16.30;;;;;;;14.61;100.00;101777.22;5048416;28;20029;-71
2023/10/09 04:18:20;;;;;;;25.60;14.65;;;;;;;14.62;100.00;101778.06;5051483;28;20021;-72
2023/10/09 04:21:18;;;;;;;27.92;15.68;;;;;;;14.61;100.00;101765.47;5060641;28;20331;-71
2023/10/09 04:23:59;;;;;;;28.85;14.40;;;;;;;14.59;100.00;101752.06;5064213;28;20047;-71
2023/10/09 04:26:25;;;;;;;26.02;14.95;;;;;;;14.60;100.00;101748.41;5053853;28;20032;-72
2023/10/09 04:28:53;;;;;;;26.10;14.32;;;;;;;14.61;100.00;101754.66;5050769;28;20040;-72
2023/10/09 04:31:21;;;;;;;26.98;14.57;;;;;;;14.61;100.00;101749.25;5053613;28;20169;-71
2023/10/09 04:36:49;;;;;;;25.80;14.13;;;;;;;14.61;100.00;101765.47;5038537;28;20044;-71
2023/10/09 04:39:36;;;;;;;26.50;14.73;;;;;;;14.60;100.00;101786.28;5034908;28;20025;-72
2023/10/09 04:44:59;;;;;;;28.10;14.73;;;;;;;14.58;100.00;101787.34;5027329;28;20124;-71
2023/10/09 04:52:55;;;;;;;30.13;15.63;;;;;;;14.58;100.00;101798.19;5021442;28;20064;-71
2023/10/09 04:55:24;;;;;;;33.40;15.75;;;;;;;14.58;100.00;101788.22;5029585;28;20037;-71
2023/10/09 04:58:08;;;;;;;30.80;16.35;;;;;;;14.58;100.00;101780.09;5035428;28;20135;-71
2023/10/09 05:03:10;;;;;;;27.80;15.25;;;;;;;14.59;100.00;101771.00;5030616;28;20095;-71
2023/10/09 05:13:42;;;;;;;29.20;16.48;;;;;;;14.62;100.00;101786.19;5039120;28;20067;-71
2023/10/09 05:16:18;;;;;;;26.60;14.52;;;;;;;14.65;100.00;101800.34;5035661;28;20030;-71
2023/10/09 05:18:55;;;;;;;30.35;16.55;;;;;;;14.65;100.00;101788.66;5051534;28;20028;-72
2023/10/09 05:29:59;;;;;;;27.67;15.95;;;;;;;14.67;100.00;101789.38;5027896;28;20033;-72
2023/10/09 05:32:34;;;;;;;28.83;15.25;;;;;;;14.68;100.00;101799.25;5053565;28;20292;-72
2023/10/09 05:37:26;;;;;;;29.65;17.25;;;;;;;14.70;100.00;101807.25;5059109;28;20481;-72
2023/10/09 05:40:22;;;;;;;27.08;16.38;;;;;;;14.71;100.00;101817.94;5058641;28;20149;-72
2023/10/09 05:42:44;;;;;;;30.23;16.65;;;;;;;14.69;100.00;101819.91;5051764;28;20463;-72
2023/10/09 05:50:34;;;;;;;34.15;18.08;;;;;;;14.71;100.00;101808.97;5044440;28;20083;-72
2023/10/09 05:53:09;;;;;;;28.85;17.00;;;;;;;14.72;100.00;101805.31;5048977;28;20031;-72
2023/10/09 06:03:53;;;;;;;32.40;16.38;;;;;;;14.75;100.00;101838.41;5054478;28;20106;-72
2023/10/09 06:06:36;;;;;;;35.13;18.42;;;;;;;14.75;100.00;101843.81;5060674;28;20545;-72
2023/10/09 06:11:42;;;;;;;32.58;18.23;;;;;;;14.78;100.00;101845.44;5048137;28;20492;-72
2023/10/09 06:19:12;;;;;;;31.60;19.70;;;;;;;14.79;100.00;101833.63;5046714;28;20052;-73
2023/10/09 06:24:25;;;;;;;34.08;18.30;;;;;;;14.80;100.00;101827.22;5054867;28;20034;-74
2023/10/09 06:32:34;;;;;;;31.90;19.30;;;;;;;14.84;100.00;101834.13;5050606;28;20110;-74
2023/10/09 06:35:16;;;;;;;29.75;17.27;;;;;;;14.85;100.00;101830.44;5044708;28;20032;-74
2023/10/09 06:43:17;;;;;;;33.90;19.08;;;;;;;14.85;100.00;101844.84;5045749;28;20098;-74
2023/10/09 06:45:46;;;;;;;29.13;17.65;;;;;;;14.86;100.00;101853.81;5046636;28;20037;-74
2023/10/09 06:53:58;;;;;;;32.78;19.45;;;;;;;14.89;100.00;101834.66;5050341;28;20031;-73
2023/10/09 06:59:24;;;;;;;;;;;;;;;14.95;100.00;101820.66;5038721;28;20127;-74
2023/10/09 07:07:07;;;;;;;33.90;19.30;;;;;;;14.95;100.00;101801.69;5050544;28;20342;-74
2023/10/09 07:09:42;;;;;;;33.30;17.75;;;;;;;14.95;100.00;101799.00;5056364;28;20127;-74
2023/10/09 07:12:20;;;;;;;32.42;18.35;;;;;;;14.98;100.00;101790.63;5058459;28;20032;-74
2023/10/09 07:27:45;;;;;;;30.65;18.73;;;;;;;15.05;100.00;101790.16;5042105;28;20555;-73
2023/10/09 07:33:16;;;;;;;33.80;18.77;;;;;;;15.07;100.00;101816.13;5045997;28;20481;-72
2023/10/09 07:38:20;;;;;;;33.22;19.15;;;;;;;15.07;100.00;101853.19;5052150;28;20083;-71
2023/10/09 07:40:59;;;;;;;32.08;20.05;;;;;;;15.07;100.00;101870.28;5064645;28;20093;-71
2023/10/09 07:43:39;;;;;;;29.10;18.10;;;;;;;15.07;100.00;101869.44;5049253;28;20029;-71
2023/10/09 07:49:31;;;;;;;32.22;19.13;;;;;;;15.09;100.00;101875.59;5044224;28;20424;-72
2023/10/09 07:51:32;;;;;;;31.05;18.15;;;;;;;15.10;100.00;101870.06;5048987;28;20155;-72
2023/10/09 07:54:08;;;;;;;33.80;19.38;;;;;;;15.11;100.00;101854.66;5047737;28;20076;-72
2023/10/09 07:56:46;;;;;;;33.38;19.10;;;;;;;15.12;100.00;101841.00;5046683;28;20029;-72
2023/10/09 07:59:13;;;;;;;30.42;18.30;;;;;;;15.14;100.00;101830.94;5045228;28;20056;-73
2023/10/09 08:01:52;;;;;;;31.05;18.95;;;;;;;15.15;100.00;101827.25;5051963;28;20108;-73
2023/10/09 08:04:37;;;;;;;34.72;19.42;;;;;;;15.16;100.00;101836.22;5052006;28;20024;-73
2023/10/09 08:07:07;;;;;;;39.42;21.15;;;;;;;15.17;100.00;101840.66;5056058;28;20032;-72
2023/10/09 08:09:48;;;;;;;33.88;20.33;;;;;;;15.18;100.00;101839.66;5052991;28;20116;-72
2023/10/09 08:12:38;;;;;;;31.17;19.60;;;;;;;15.20;100.00;101854.81;5059531;28;20025;-73
2023/10/09 08:16:04;;;;;;;32.83;19.67;;;;;;;15.23;100.00;101847.44;5060665;28;20469;-73
2023/10/09 08:18:09;;;;;;;35.72;19.02;;;;;;;15.25;100.00;101846.34;5054579;28;20044;-72
2023/10/09 08:23:46;;;;;;;30.63;19.58;;;;;;;15.29;100.00;101852.41;5041662;28;20052;-72
2023/10/09 08:26:14;;;;;;;31.52;19.00;;;;;;;15.33;100.00;101848.44;5027137;28;20039;-72
2023/10/09 08:28:45;;;;;;;33.45;20.08;;;;;;;15.34;100.00;101856.47;5025668;28;20053;-71
2023/10/09 08:31:34;;;;;;;31.17;20.33;;;;;;;15.37;100.00;101842.69;5028924;28;20021;-72
2023/10/09 08:34:03;;;;;;;36.33;19.30;;;;;;;15.43;100.00;101832.34;5033844;28;20064;-72
2023/10/09 08:36:36;;;;;;;35.67;19.50;;;;;;;15.46;100.00;101832.97;5031194;28;20485;-72
2023/10/09 08:39:15;;;;;;;29.70;18.77;;;;;;;15.50;100.00;101833.59;5035070;28;20041;-73
2023/10/09 08:41:40;;;;;;;34.03;20.42;;;;;;;15.53;100.00;101828.81;5023986;28;20420;-72
2023/10/09 08:44:06;;;;;;;33.20;20.60;;;;;;;15.54;100.00;101826.94;5028515;28;20020;-72
2023/10/09 08:46:33;;;;;;;33.50;19.67;;;;;;;15.57;100.00;101834.00;5016655;28;20124;-73
2023/10/09 08:48:59;;;;;;;34.50;20.65;;;;;;;15.60;100.00;101834.59;5033909;28;20056;-73
2023/10/09 08:51:26;;;;;;;31.65;20.00;;;;;;;15.62;100.00;101829.91;5028578;28;20072;-72
2023/10/09 08:53:52;;;;;;;36.08;20.27;;;;;;;15.65;100.00;101836.94;5030287;28;20040;-72
2023/10/09 08:56:22;;;;;;;33.65;20.13;;;;;;;15.69;100.00;101816.75;5029547;28;20507;-72
2023/10/09 08:58:47;;;;;;;;;;;;;;;15.75;100.00;101820.81;5036380;28;20469;-73
2023/10/09 09:01:21;;;;;;;32.90;19.42;;;;;;;15.76;100.00;101825.25;5046161;28;19929;-72
2023/10/09 09:03:47;;;;;;;32.35;19.63;;;;;;;15.81;100.00;101831.19;5050552;28;20028;-72
2023/10/09 09:06:14;;;;;;;31.13;19.27;;;;;;;15.83;100.00;101831.94;5049357;28;20025;-72
2023/10/09 09:08:40;;;;;;;32.55;21.35;;;;;;;15.87;100.00;101833.41;5051492;28;20039;-72
2023/10/09 09:11:23;;;;;;;34.47;20.77;;;;;;;15.90;100.00;101825.03;5060126;28;20476;-73
2023/10/09 09:14:18;;;;;;;32.85;20.55;;;;;;;15.94;100.00;101831.06;5058175;28;20069;-73
2023/10/09 09:16:48;;;;;;;38.55;21.50;;;;;;;15.98;100.00;101832.56;5057538;28;20029;-72
2023/10/09 09:19:17;;;;;;;;;;;;;;;16.03;100.00;101835.75;5055949;28;20115;-71
2023/10/09 09:21:59;;;;;;;35.65;22.38;;;;;;;16.08;100.00;101849.81;5051629;28;19969;-72
2023/10/09 09:27:09;;;;;;;33.20;21.48;;;;;;;16.16;100.00;101863.59;5063151;28;20017;-73
2023/10/09 09:29:37;;;;;;;34.97;21.08;;;;;;;16.20;100.00;101869.66;5056045;28;20039;-72
2023/10/09 09:32:22;;;;;;;37.22;22.83;;;;;;;16.24;100.00;101863.00;5051810;28;20549;-72
2023/10/09 09:35:01;;;;;;;37.50;22.73;;;;;;;16.27;100.00;101876.31;5051233;28;20041;-72
2023/10/09 09:37:31;;;;;;;33.97;22.52;;;;;;;16.32;100.00;101878.63;5045400;28;20500;-72
2023/10/09 09:40:28;;;;;;;36.90;21.83;;;;;;;16.35;100.00;101881.94;5054080;28;20032;-72
2023/10/09 09:42:57;;;;;;;36.00;23.08;;;;;;;16.39;100.00;101874.44;5045011;28;20147;-72
2023/10/09 09:45:24;;;;;;;35.85;23.00;;;;;;;16.43;100.00;101890.34;5053848;28;20582;-72
2023/10/09 09:47:54;;;;;;;33.53;22.60;;;;;;;16.47;100.00;101895.50;5053812;28;20041;-72
2023/10/09 09:50:26;;;;;;;35.63;22.02;;;;;;;16.52;100.00;101893.28;5043223;28;20036;-77
2023/10/09 09:52:54;;;;;;;33.72;21.45;;;;;;;16.54;100.00;101896.72;5043620;28;20068;-77
2023/10/09 09:55:30;;;;;;;33.45;23.25;;;;;;;16.57;100.00;101897.34;5047555;28;20444;-77
2023/10/09 09:57:57;;;;;;;39.03;24.85;;;;;;;16.59;100.00;101897.22;5057170;28;20029;-77
2023/10/09 10:03:20;;;;;;;38.97;24.40;;;;;;;16.65;100.00;101891.28;5045483;28;20051;-77
2023/10/09 10:05:48;;;;;;;36.53;23.90;;;;;;;16.67;100.00;101894.72;5053862;28;20029;-78
2023/10/09 10:08:27;;;;;;;34.35;23.65;;;;;;;16.72;100.00;101902.47;5054745;28;20113;-78
2023/10/09 10:10:58;;;;;;;42.58;25.92;;;;;;;16.75;100.00;101902.22;5049844;28;20013;-77
2023/10/09 10:13:41;;;;;;;38.22;26.15;;;;;;;16.80;100.00;101900.00;5052124;28;20056;-77
2023/10/09 10:16:20;;;;;;;35.20;23.52;;;;;;;16.82;100.00;101898.00;5055294;28;20424;-78
2023/10/09 10:19:41;;;;;;;36.38;24.00;;;;;;;16.85;100.00;101905.94;5054188;28;20513;-77
2023/10/09 10:21:41;;;;;;;36.92;26.13;;;;;;;16.88;100.00;101891.25;5048329;28;20420;-77
2023/10/09 10:24:28;;;;;;;36.33;26.17;;;;;;;16.90;100.00;101906.44;5052449;28;20112;-78
2023/10/09 10:27:26;;;;;;;45.45;28.90;;;;;;;16.93;100.00;101897.16;5048278;28;20086;-78
2023/10/09 10:30:10;;;;;;;37.15;27.38;;;;;;;16.95;100.00;101892.47;5036971;28;20034;-77
2023/10/09 10:32:51;;;;;;;41.80;27.25;;;;;;;16.96;100.00;101899.63;5050777;28;20341;-77
2023/10/09 10:35:17;;;;;;;35.75;25.65;;;;;;;17.00;100.00;101895.66;5039189;28;20052;-78
2023/10/09 10:37:54;;;;;;;41.90;25.88;;;;;;;17.02;100.00;101896.38;5035779;28;20029;-78
2023/10/09 10:40:38;;;;;;;42.00;27.13;;;;;;;17.07;100.00;101893.28;5050114;28;20115;-77
2023/10/09 10:46:14;;;;;;;41.53;26.95;;;;;;;17.12;100.00;101891.06;5051779;28;20066;-78
2023/10/09 10:48:39;;;;;;;40.05;27.40;;;;;;;17.15;100.00;101881.78;5051249;28;20045;-78
2023/10/09 10:51:11;;;;;;;39.25;27.08;;;;;;;17.20;100.00;101884.97;5055691;28;20029;-77
2023/10/09 10:53:47;;;;;;;40.08;29.00;;;;;;;17.21;100.00;101884.81;5056836;28;20174;-77
2023/10/09 10:58:53;;;;;;;38.60;27.95;;;;;;;17.27;100.00;101891.59;5043357;28;20037;-77
2023/10/09 11:01:24;;;;;;;38.35;27.50;;;;;;;17.29;100.00;101892.31;5049099;28;20119;-74
2023/10/09 11:03:55;;;;;;;38.80;27.55;;;;;;;17.32;100.00;101888.47;5058838;28;20036;-74
2023/10/09 11:06:38;;;;;;;40.80;26.98;;;;;;;17.34;100.00;101898.22;5049190;28;20029;-74
2023/10/09 11:09:20;;;;;;;39.15;25.17;;;;;;;17.36;100.00;101888.06;5057567;28;20032;-74
2023/10/09 11:11:47;;;;;;;42.88;26.60;;;;;;;17.38;100.00;101901.53;5048095;28;20026;-74
2023/10/09 11:14:23;;;;;;;39.78;27.40;;;;;;;17.41;100.00;101903.97;5063603;28;20388;-74
2023/10/09 11:16:49;;;;;;;33.85;25.73;;;;;;;17.43;100.00;101899.28;5060773;28;20231;-74
2023/10/09 11:19:28;;;;;;;42.92;25.90;;;;;;;17.49;100.00;101900.63;5051665;28;20415;-74
2023/10/09 11:24:35;;;;;;;37.60;24.02;;;;;;;17.53;100.00;101892.06;5062994;28;20327;-75
2023/10/09 11:27:05;;;;;;;33.83;24.33;;;;;;;17.55;100.00;101890.06;5057086;28;20028;-74
2023/10/09 11:32:24;;;;;;;34.63;21.60;;;;;;;17.61;100.00;101892.28;5060740;28;20439;-74
2023/10/09 11:35:08;;;;;;;32.88;20.40;;;;;;;17.65;100.00;101882.84;5054378;28;20385;-74
2023/10/09 11:37:42;;;;;;;33.85;19.60;;;;;;;17.66;100.00;101883.72;5059606;28;20442;-74
2023/10/09 11:40:42;;;;;;;30.20;19.17;;;;;;;17.67;100.00;101880.00;5055891;28;20507;-74
2023/10/09 11:43:13;;;;;;;32.90;18.73;;;;;;;17.74;100.00;101878.47;5045222;28;20064;-75
2023/10/09 11:45:39;;;;;;;26.98;16.20;;;;;;;17.75;100.00;101885.63;5060480;28;20025;-74
2023/10/09 11:48:39;;;;;;;30.70;19.42;;;;;;;17.80;100.00;101886.09;5059271;28;20043;-74
2023/10/09 11:51:21;;;;;;;32.25;18.70;;;;;;;17.88;100.00;101881.81;5049434;28;20377;-74
2023/10/09 11:53:50;;;;;;;29.55;16.42;;;;;;;17.92;100.00;101891.47;5056784;28;20028;-74
2023/10/09 11:56:19;;;;;;;31.02;18.50;;;;;;;17.93;100.00;101891.34;5063888;28;20078;-74
2023/10/09 11:58:49;;;;;;;;;;;;;;;17.99;100.00;101892.66;5064594;28;20108;-75
2023/10/09 12:01:20;;;;;;;31.38;17.33;;;;;;;17.99;100.00;101890.81;5039281;28;19959;-74
2023/10/09 12:03:52;;;;;;;29.67;16.85;;;;;;;18.01;100.00;101890.69;5059072;28;20037;-75
2023/10/09 12:06:19;;;;;;;33.40;17.42;;;;;;;18.04;100.00;101889.53;5052669;28;20043;-74
2023/10/09 12:08:48;;;;;;;30.42;16.73;;;;;;;18.07;100.00;101895.56;5054305;28;20512;-74
2023/10/09 12:11:28;;;;;;;31.08;16.52;;;;;;;18.07;100.00;101890.13;5066651;28;20040;-74
2023/10/09 12:13:56;;;;;;;28.08;14.70;;;;;;;18.09;100.00;101893.56;5059067;28;20033;-74
2023/10/09 12:16:27;;;;;;;25.73;13.13;;;;;;;18.10;100.00;101889.84;5054519;28;20112;-74
2023/10/09 12:18:53;;;;;;;27.70;16.17;;;;;;;18.13;100.00;101884.13;5061521;28;20416;-74
2023/10/09 12:21:19;;;;;;;25.38;13.75;;;;;;;18.14;100.00;101885.88;5062508;28;20021;-74
2023/10/09 12:23:47;;;;;;;29.98;14.85;;;;;;;18.17;100.00;101880.16;5059550;28;20036;-75
2023/10/09 12:26:14;;;;;;;27.98;13.82;;;;;;;18.21;100.00;101874.44;5053491;28;20036;-74
2023/10/09 12:28:40;;;;;;;28.42;11.02;;;;;;;18.22;100.00;101882.44;5057756;28;20047;-73
2023/10/09 12:31:05;;;;;;;27.00;12.93;;;;;;;18.23;100.00;101867.84;5048431;28;20037;-74
2023/10/09 12:33:31;;;;;;;28.10;13.00;;;;;;;18.26;100.00;101867.56;5059510;28;20502;-74
2023/10/09 12:36:00;;;;;;;27.65;12.25;;;;;;;18.29;100.00;101877.34;5063343;28;20392;-74
2023/10/09 12:38:32;;;;;;;27.08;12.80;;;;;;;18.30;100.00;101873.59;5045622;28;20116;-74
2023/10/09 12:41:18;;;;;;;25.15;12.30;;;;;;;18.30;100.00;101877.19;5052939;28;20123;-74
2023/10/09 12:43:43;;;;;;;25.10;12.13;;;;;;;18.32;100.00;101866.16;5055780;28;20037;-74
2023/10/09 12:46:08;;;;;;;26.33;12.70;;;;;;;18.36;100.00;101855.84;5054668;28;20087;-74
2023/10/09 12:48:35;;;;;;;21.90;11.25;;;;;;;18.38;100.00;101862.03;5047074;28;20049;-74
2023/10/09 12:51:06;;;;;;;24.05;11.70;;;;;;;18.40;100.00;101862.75;5046865;28;20029;-74
2023/10/09 12:53:34;;;;;;;24.20;11.05;;;;;;;18.44;100.00;101856.03;5055593;28;20028;-74
2023/10/09 12:55:59;;;;;;;23.42;11.63;;;;;;;18.45;100.00;101849.59;5051779;28;20025;-74
2023/10/09 12:58:26;;;;;;;24.20;11.38;;;;;;;18.47;100.00;101837.53;5053224;28;20029;-74
2023/10/09 13:00:52;;;;;;;25.88;10.93;;;;;;;18.48;100.00;101831.09;5048762;28;20067;-74
2023/10/09 13:03:18;;;;;;;24.30;10.40;;;;;;;18.50;100.00;101830.97;5057077;28;20033;-74
2023/10/09 13:05:52;;;;;;;24.10;10.85;;;;;;;18.50;100.00;101834.53;5047987;28;20842;-74
2023/10/09 13:08:31;;;;;;;25.20;10.95;;;;;;;18.52;100.00;101835.25;5051502;28;20125;-74
2023/10/09 13:11:00;;;;;;;23.33;10.40;;;;;;;18.56;100.00;101835.84;5050471;28;20078;-73
2023/10/09 13:13:41;;;;;;;27.35;10.63;;;;;;;18.58;100.00;101832.97;5049209;28;20036;-74
2023/10/09 13:16:24;;;;;;;22.52;10.32;;;;;;;18.60;100.00;101839.16;5058985;28;20029;-74
2023/10/09 13:18:54;;;;;;;27.38;11.40;;;;;;;18.62;100.00;101831.69;5050158;28;20151;-74
2023/10/09 13:21:31;;;;;;;25.73;10.57;;;;;;;18.62;100.00;101826.25;5049096;28;20059;-74
2023/10/09 13:23:57;;;;;;;23.75;10.20;;;;;;;18.63;100.00;101819.81;5047813;28;20044;-74
2023/10/09 13:26:35;;;;;;;25.27;11.27;;;;;;;18.63;100.00;101833.41;5058918;28;20033;-75
2023/10/09 13:29:02;;;;;;;25.27;11.43;;;;;;;18.64;100.00;101844.16;5052497;28;20036;-74
2023/10/09 13:31:31;;;;;;;25.60;10.73;;;;;;;18.66;100.00;101842.16;5055283;28;20441;-74
2023/10/09 13:33:59;;;;;;;23.80;12.15;;;;;;;18.69;100.00;101849.19;5061141;28;20020;-74
2023/10/09 13:36:31;;;;;;;24.85;11.38;;;;;;;18.72;100.00;101843.44;5073470;28;20037;-74
2023/10/09 13:39:26;;;;;;;26.90;11.52;;;;;;;18.78;100.00;101834.72;5061586;28;20034;-71
2023/10/09 13:42:01;;;;;;;25.88;10.98;;;;;;;18.80;100.00;101835.44;5055988;28;20021;-72
2023/10/09 13:44:31;;;;;;;29.20;11.90;;;;;;;18.81;100.00;101839.88;5060669;28;20043;-72
2023/10/09 13:46:57;;;;;;;27.58;12.15;;;;;;;18.83;100.00;101845.19;5049641;28;20059;-71
2023/10/09 13:49:23;;;;;;;21.35;9.02;;;;;;;18.83;100.00;101846.06;5049296;28;20052;-72
2023/10/09 13:51:50;;;;;;;23.27;10.02;;;;;;;18.82;100.00;101841.59;5049244;28;20131;-71